sensor_id;sensor_type;location;lat;lon;timestamp;pressure;altitude;pressure_sealevel;temperature;humidity
42705;BME280;28342;42.594;23.414;2024-01-10T18:05:59;95431.56;;;-3.73;82.27
42705;BME280;28342;42.594;23.414;2024-01-10T18:08:24;95478.34;;;-3.47;81.84
42705;BME280;28342;42.594;23.414;2024-01-10T18:18:49;95469.50;;;-3.59;83.03
42705;BME280;28342;42.594;23.414;2024-01-10T18:27:35;95467.13;;;-3.67;84.47
42705;BME280;28342;42.594;23.414;2024-01-10T18:30:03;95471.13;;;-3.58;84.44
42705;BME280;28342;42.594;23.414;2024-01-10T18:32:31;95465.97;;;-3.45;83.57
42705;BME280;28342;42.594;23.414;2024-01-10T18:34:56;95481.16;;;-3.28;83.60
42705;BME280;28342;42.594;23.414;2024-01-10T18:37:22;95474.22;;;-3.21;82.70
42705;BME280;28342;42.594;23.414;2024-01-10T18:39:47;95471.81;;;-3.16;82.40
42705;BME280;28342;42.594;23.414;2024-01-10T18:42:15;95487.00;;;-3.00;82.03
42705;BME280;28342;42.594;23.414;2024-01-10T18:44:41;95490.19;;;-2.98;81.62
42705;BME280;28342;42.594;23.414;2024-01-10T18:47:06;95442.84;;;-3.26;81.70
42705;BME280;28342;42.594;23.414;2024-01-10T18:49:33;95476.63;;;-3.00;81.60
42705;BME280;28342;42.594;23.414;2024-01-10T18:51:58;95471.59;;;-3.08;81.89
42705;BME280;28342;42.594;23.414;2024-01-10T18:54:26;95479.00;;;-2.92;81.07
42705;BME280;28342;42.594;23.414;2024-01-10T18:56:51;95473.63;;;-2.90;80.46
42705;BME280;28342;42.594;23.414;2024-01-10T18:59:16;95464.63;;;-3.01;79.80
42705;BME280;28342;42.594;23.414;2024-01-10T19:01:42;95472.81;;;-3.04;79.58
42705;BME280;28342;42.594;23.414;2024-01-10T19:04:09;95441.63;;;-3.37;79.67
42705;BME280;28342;42.594;23.414;2024-01-10T19:06:34;95440.63;;;-3.43;79.04
42705;BME280;28342;42.594;23.414;2024-01-10T19:08:59;95468.78;;;-3.26;78.77
42705;BME280;28342;42.594;23.414;2024-01-10T19:11:26;95470.59;;;-3.34;79.18
42705;BME280;28342;42.594;23.414;2024-01-10T19:13:52;95482.72;;;-3.41;79.41
42705;BME280;28342;42.594;23.414;2024-01-10T19:16:17;95457.94;;;-3.63;79.13
42705;BME280;28342;42.594;23.414;2024-01-10T19:18:43;95472.31;;;-3.54;79.84
42705;BME280;28342;42.594;23.414;2024-01-10T19:21:09;95477.69;;;-3.62;80.57
42705;BME280;28342;42.594;23.414;2024-01-10T19:23:37;95445.28;;;-3.93;80.62
42705;BME280;28342;42.594;23.414;2024-01-10T19:26:02;95474.25;;;-3.76;81.05
42705;BME280;28342;42.594;23.414;2024-01-10T19:28:28;95470.66;;;-3.68;80.76
42705;BME280;28342;42.594;23.414;2024-01-10T19:30:53;95463.09;;;-3.76;81.16
42705;BME280;28342;42.594;23.414;2024-01-10T19:33:22;95477.91;;;-3.57;80.83
42705;BME280;28342;42.594;23.414;2024-01-10T19:35:48;95450.72;;;-3.74;81.01
42705;BME280;28342;42.594;23.414;2024-01-10T19:38:14;95476.28;;;-3.65;81.15
42705;BME280;28342;42.594;23.414;2024-01-10T19:40:39;95479.88;;;-3.59;81.41
42705;BME280;28342;42.594;23.414;2024-01-10T19:43:08;95485.09;;;-3.52;81.26
42705;BME280;28342;42.594;23.414;2024-01-10T19:45:34;95483.31;;;-3.52;80.85
42705;BME280;28342;42.594;23.414;2024-01-10T19:47:59;95481.69;;;-3.53;80.90
42705;BME280;28342;42.594;23.414;2024-01-10T19:50:25;95474.53;;;-3.51;80.71
42705;BME280;28342;42.594;23.414;2024-01-10T19:52:50;95472.34;;;-3.47;80.07
42705;BME280;28342;42.594;23.414;2024-01-10T19:55:17;95483.97;;;-3.37;79.97
42705;BME280;28342;42.594;23.414;2024-01-10T19:57:44;95485.75;;;-3.31;80.01
42705;BME280;28342;42.594;23.414;2024-01-10T20:00:10;95465.56;;;-3.48;79.96
42705;BME280;28342;42.594;23.414;2024-01-10T20:02:35;95466.75;;;-3.44;80.04
42705;BME280;28342;42.594;23.414;2024-01-10T20:05:01;95469.50;;;-3.59;80.79
42705;BME280;28342;42.594;23.414;2024-01-10T20:07:26;95482.72;;;-3.47;80.50
42705;BME280;28342;42.594;23.414;2024-01-10T20:09:51;95465.13;;;-3.65;80.88
42705;BME280;28342;42.594;23.414;2024-01-10T20:12:17;95473.09;;;-3.67;81.12
42705;BME280;28342;42.594;23.414;2024-01-10T20:14:42;95467.13;;;-3.67;81.16
42705;BME280;28342;42.594;23.414;2024-01-10T20:17:08;95458.72;;;-3.69;80.95
42705;BME280;28342;42.594;23.414;2024-01-10T20:19:33;95467.13;;;-3.67;80.77
42705;BME280;28342;42.594;23.414;2024-01-10T20:21:59;95459.50;;;-3.69;80.35
42705;BME280;28342;42.594;23.414;2024-01-10T20:24:24;95474.25;;;-3.69;80.11
42705;BME280;28342;42.594;23.414;2024-01-10T20:26:50;95471.84;;;-3.77;79.84
42705;BME280;28342;42.594;23.414;2024-01-10T20:29:15;95473.47;;;-3.70;79.28
42705;BME280;28342;42.594;23.414;2024-01-10T20:31:40;95465.13;;;-3.65;78.80
42705;BME280;28342;42.594;23.414;2024-01-10T20:34:06;95468.31;;;-3.63;79.25
42705;BME280;28342;42.594;23.414;2024-01-10T20:36:31;95463.94;;;-3.56;78.61
42705;BME280;28342;42.594;23.414;2024-01-10T20:39:00;95456.75;;;-3.61;78.47
42705;BME280;28342;42.594;23.414;2024-01-10T20:41:26;95459.75;;;-3.57;78.25
42705;BME280;28342;42.594;23.414;2024-01-10T20:43:52;95454.69;;;-3.78;78.95
42705;BME280;28342;42.594;23.414;2024-01-10T20:46:17;95473.25;;;-3.68;78.91
42705;BME280;28342;42.594;23.414;2024-01-10T20:48:42;95467.88;;;-3.73;78.78
42705;BME280;28342;42.594;23.414;2024-01-10T20:51:08;95475.41;;;-3.85;79.40
42705;BME280;28342;42.594;23.414;2024-01-10T20:53:33;95454.59;;;-4.05;79.14
42705;BME280;28342;42.594;23.414;2024-01-10T20:55:59;95456.84;;;-3.88;78.65
42705;BME280;28342;42.594;23.414;2024-01-10T20:58:25;95478.78;;;-3.84;78.55
42705;BME280;28342;42.594;23.414;2024-01-10T21:00:50;95476.19;;;-3.84;78.10
42705;BME280;28342;42.594;23.414;2024-01-10T21:03:17;95457.84;;;-3.89;77.86
42705;BME280;28342;42.594;23.414;2024-01-10T21:05:43;95486.63;;;-3.78;78.03
42705;BME280;28342;42.594;23.414;2024-01-10T21:08:11;95469.00;;;-3.89;78.03
42705;BME280;28342;42.594;23.414;2024-01-10T21:10:37;95496.13;;;-3.85;77.76
42705;BME280;28342;42.594;23.414;2024-01-10T21:13:02;95471.00;;;-4.32;78.71
42705;BME280;28342;42.594;23.414;2024-01-10T21:15:28;95488.81;;;-4.16;78.85
42705;BME280;28342;42.594;23.414;2024-01-10T21:17:53;95488.56;;;-4.28;79.13
42705;BME280;28342;42.594;23.414;2024-01-10T21:20:18;95488.19;;;-4.25;79.19
42705;BME280;28342;42.594;23.414;2024-01-10T21:22:44;95491.19;;;-4.21;78.99
42705;BME280;28342;42.594;23.414;2024-01-10T21:25:09;95481.03;;;-4.51;79.85
42705;BME280;28342;42.594;23.414;2024-01-10T21:27:35;95500.94;;;-4.23;79.35
42705;BME280;28342;42.594;23.414;2024-01-10T21:30:00;95457.59;;;-4.42;79.21
42705;BME280;28342;42.594;23.414;2024-01-10T21:32:26;95470.78;;;-4.37;79.34
42705;BME280;28342;42.594;23.414;2024-01-10T21:34:52;95491.09;;;-4.34;80.21
42705;BME280;28342;42.594;23.414;2024-01-10T21:37:17;95477.56;;;-4.36;80.02
42705;BME280;28342;42.594;23.414;2024-01-10T21:39:43;95475.47;;;-4.47;80.52
42705;BME280;28342;42.594;23.414;2024-01-10T21:42:09;95461.53;;;-4.46;80.02
42705;BME280;28342;42.594;23.414;2024-01-10T21:44:35;95483.91;;;-4.39;80.05
42705;BME280;28342;42.594;23.414;2024-01-10T21:47:01;95491.00;;;-4.47;80.13
42705;BME280;28342;42.594;23.414;2024-01-10T21:49:30;95491.47;;;-4.44;80.39
42705;BME280;28342;42.594;23.414;2024-01-10T21:51:56;95484.03;;;-4.47;80.37
42705;BME280;28342;42.594;23.414;2024-01-10T21:54:22;95497.28;;;-4.35;80.22
42705;BME280;28342;42.594;23.414;2024-01-10T21:56:48;95461.44;;;-4.60;80.09
42705;BME280;28342;42.594;23.414;2024-01-10T21:59:14;95487.31;;;-4.38;79.53
42705;BME280;28342;42.594;23.414;2024-01-10T22:01:39;95495.91;;;-4.31;79.54
42705;BME280;28342;42.594;23.414;2024-01-10T22:04:05;95500.56;;;-4.48;80.42
42705;BME280;28342;42.594;23.414;2024-01-10T22:06:30;95496.56;;;-4.51;80.35
42705;BME280;28342;42.594;23.414;2024-01-10T22:08:57;95493.66;;;-4.41;79.61
42705;BME280;28342;42.594;23.414;2024-01-10T22:11:23;95498.69;;;-4.33;79.16
42705;BME280;28342;42.594;23.414;2024-01-10T22:13:48;95506.88;;;-4.29;78.85
42705;BME280;28342;42.594;23.414;2024-01-10T22:16:14;95490.50;;;-4.36;78.68
42705;BME280;28342;42.594;23.414;2024-01-10T22:18:39;95475.09;;;-4.44;78.65
42705;BME280;28342;42.594;23.414;2024-01-10T22:21:05;95487.91;;;-4.36;78.77
42705;BME280;28342;42.594;23.414;2024-01-10T22:23:32;95488.28;;;-4.39;78.73
42705;BME280;28342;42.594;23.414;2024-01-10T22:25:59;95464.09;;;-4.81;79.48
42705;BME280;28342;42.594;23.414;2024-01-10T22:28:24;95455.72;;;-4.83;79.51
42705;BME280;28342;42.594;23.414;2024-01-10T22:30:50;95457.44;;;-4.69;78.75
42705;BME280;28342;42.594;23.414;2024-01-10T22:33:15;95466.31;;;-4.78;78.73
42705;BME280;28342;42.594;23.414;2024-01-10T22:35:41;95440.38;;;-5.13;78.71
42705;BME280;28342;42.594;23.414;2024-01-10T22:38:06;95448.13;;;-5.13;78.83
42705;BME280;28342;42.594;23.414;2024-01-10T22:40:32;95454.56;;;-5.30;79.58
42705;BME280;28342;42.594;23.414;2024-01-10T22:42:57;95450.38;;;-5.31;80.46
42705;BME280;28342;42.594;23.414;2024-01-10T22:45:23;95452.94;;;-5.31;80.60
42705;BME280;28342;42.594;23.414;2024-01-10T22:47:48;95451.41;;;-5.25;80.96
42705;BME280;28342;42.594;23.414;2024-01-10T22:50:14;95458.84;;;-5.16;80.95
42705;BME280;28342;42.594;23.414;2024-01-10T22:52:41;95435.56;;;-5.16;80.56
42705;BME280;28342;42.594;23.414;2024-01-10T22:55:07;95425.72;;;-5.27;80.40
42705;BME280;28342;42.594;23.414;2024-01-10T22:57:33;95453.19;;;-5.04;80.36
42705;BME280;28342;42.594;23.414;2024-01-10T22:59:58;95437.19;;;-5.15;80.57
42705;BME280;28342;42.594;23.414;2024-01-10T23:02:24;95431.50;;;-5.25;79.50
42705;BME280;28342;42.594;23.414;2024-01-10T23:04:49;95435.34;;;-5.21;79.91
42705;BME280;28342;42.594;23.414;2024-01-10T23:07:15;95439.56;;;-5.13;80.01
42705;BME280;28342;42.594;23.414;2024-01-10T23:09:40;95432.75;;;-5.21;79.75
42705;BME280;28342;42.594;23.414;2024-01-10T23:12:06;95428.09;;;-5.32;80.61
42705;BME280;28342;42.594;23.414;2024-01-10T23:14:33;95431.75;;;-5.41;80.34
42705;BME280;28342;42.594;23.414;2024-01-10T23:16:58;95430.41;;;-5.37;82.04
